Time;durP1;ratioP1;P1;durP2;ratioP2;P2;SDS_P1;SDS_P2;PMS_P1;PMS_P2;Temp;Humidity;BMP_temperature;BMP_pressure;BME280_temperature;BME280_humidity;BME280_pressure;Samples;Min_cycle;Max_cycle;Signal;HPM_P1;HPM_P2
2022/03/02 00:01:34;;;;;;;14.05;5.53;;;;;;;;;;4973143;28;20504;-76
2022/03/02 00:04:00;;;;;;;14.60;5.15;;;;;;;;;;4976607;28;20027;-76
2022/03/02 00:06:26;;;;;;;9.38;4.70;;;;;;;;;;4977804;28;20491;-76
2022/03/02 00:08:52;;;;;;;15.80;6.53;;;;;;;;;;4974001;28;20153;-75
2022/03/02 00:11:18;;;;;;;18.45;5.93;;;;;;;;;;4975162;28;20029;-76
2022/03/02 00:13:45;;;;;;;14.32;5.25;;;;;;;;;;4981121;28;20082;-75
2022/03/02 00:16:12;;;;;;;18.15;5.35;;;;;;;;;;4971646;28;20051;-75
2022/03/02 00:18:38;;;;;;;14.02;4.82;;;;;;;;;;4970964;28;20035;-76
2022/03/02 00:21:04;;;;;;;12.25;5.57;;;;;;;;;;4970658;28;20027;-75
2022/03/02 00:23:30;;;;;;;14.25;4.93;;;;;;;;;;4971497;28;20035;-76
2022/03/02 00:25:56;;;;;;;12.60;5.18;;;;;;;;;;4978110;28;20509;-75
2022/03/02 00:28:23;;;;;;;13.95;6.50;;;;;;;;;;4971398;28;20037;-76
2022/03/02 00:30:49;;;;;;;21.00;5.97;;;;;;;;;;4969837;28;20027;-76
2022/03/02 00:33:15;;;;;;;11.40;5.30;;;;;;;;;;4972818;28;20031;-74
2022/03/02 00:35:41;;;;;;;13.35;5.80;;;;;;;;;;4970441;28;20034;-76
2022/03/02 00:38:10;;;;;;;11.07;5.22;;;;;;;;;;4982546;28;20413;-75
2022/03/02 00:40:37;;;;;;;12.18;5.93;;;;;;;;;;4971222;28;20039;-76
2022/03/02 00:43:03;;;;;;;16.27;6.78;;;;;;;;;;4970942;28;20170;-76
2022/03/02 00:45:31;;;;;;;14.70;6.10;;;;;;;;;;4967160;28;20029;-76
2022/03/02 00:47:58;;;;;;;16.50;6.05;;;;;;;;;;4969955;28;20029;-75
2022/03/02 00:50:26;;;;;;;15.32;6.53;;;;;;;;;;4974744;28;20027;-75
2022/03/02 00:52:53;;;;;;;12.35;5.93;;;;;;;;;;4972287;28;20034;-76
2022/03/02 00:55:19;;;;;;;13.15;5.75;;;;;;;;;;4967846;28;20061;-76
2022/03/02 00:57:45;;;;;;;10.27;5.60;;;;;;;;;;4969438;28;20511;-76
2022/03/02 01:00:12;;;;;;;14.50;5.55;;;;;;;;;;4972438;28;20081;-75
2022/03/02 01:02:38;;;;;;;10.98;5.35;;;;;;;;;;4971224;28;20030;-75
2022/03/02 01:05:05;;;;;;;19.58;6.55;;;;;;;;;;4967639;28;20090;-76
2022/03/02 01:07:31;;;;;;;12.13;5.43;;;;;;;;;;4974802;28;20026;-76
2022/03/02 01:09:58;;;;;;;14.10;5.43;;;;;;;;;;4982857;28;20027;-75
2022/03/02 01:12:24;;;;;;;13.20;6.05;;;;;;;;;;4972479;28;20161;-75
2022/03/02 01:14:51;;;;;;;8.18;5.45;;;;;;;;;;4974716;28;20374;-75
2022/03/02 01:17:17;;;;;;;14.68;5.78;;;;;;;;;;4969032;28;20109;-75
2022/03/02 01:19:46;;;;;;;10.85;5.20;;;;;;;;;;4973337;28;20078;-75
2022/03/02 01:22:13;;;;;;;14.13;6.07;;;;;;;;;;4973017;28;20022;-75
2022/03/02 01:24:39;;;;;;;13.55;6.95;;;;;;;;;;4971083;28;20030;-75
2022/03/02 01:27:05;;;;;;;13.82;6.43;;;;;;;;;;4973633;28;20054;-76
2022/03/02 01:29:33;;;;;;;13.27;6.22;;;;;;;;;;4974074;28;20019;-75
2022/03/02 01:32:00;;;;;;;12.75;6.15;;;;;;;;;;4970548;28;20038;-76
2022/03/02 01:34:27;;;;;;;13.32;6.65;;;;;;;;;;4973027;28;20079;-75
2022/03/02 01:36:53;;;;;;;20.58;6.57;;;;;;;;;;4970419;28;20039;-76
2022/03/02 01:39:19;;;;;;;13.63;6.93;;;;;;;;;;4972509;28;20026;-75
2022/03/02 01:41:45;;;;;;;13.23;5.82;;;;;;;;;;4971583;28;20438;-74
2022/03/02 01:44:11;;;;;;;17.98;6.47;;;;;;;;;;4973070;28;20105;-76
2022/03/02 01:46:38;;;;;;;16.15;6.15;;;;;;;;;;4978192;28;20027;-76
2022/03/02 01:49:05;;;;;;;18.58;6.25;;;;;;;;;;4972490;28;20042;-75
2022/03/02 01:51:31;;;;;;;12.93;5.85;;;;;;;;;;4971143;28;20122;-76
2022/03/02 01:53:57;;;;;;;11.20;5.28;;;;;;;;;;4975734;28;20019;-75
2022/03/02 01:56:23;;;;;;;17.52;5.50;;;;;;;;;;4974959;28;20029;-76
2022/03/02 01:58:49;;;;;;;13.82;5.95;;;;;;;;;;4973492;28;20042;-76
2022/03/02 02:01:16;;;;;;;16.77;6.53;;;;;;;;;;4974012;28;20105;-74
2022/03/02 02:03:42;;;;;;;11.38;5.53;;;;;;;;;;4973034;28;20390;-75
2022/03/02 02:06:08;;;;;;;11.85;5.03;;;;;;;;;;4970422;28;20107;-75
2022/03/02 02:08:35;;;;;;;16.60;6.13;;;;;;;;;;4970879;28;20106;-75
2022/03/02 02:11:02;;;;;;;17.27;7.25;;;;;;;;;;4974336;28;20031;-76
2022/03/02 02:13:34;;;;;;;15.18;5.75;;;;;;;;;;4973807;28;20126;-75
2022/03/02 02:16:00;;;;;;;13.25;5.93;;;;;;;;;;4970561;28;20121;-74
2022/03/02 02:18:27;;;;;;;14.65;5.80;;;;;;;;;;4966926;28;20038;-75
2022/03/02 02:20:53;;;;;;;12.93;6.53;;;;;;;;;;4973372;28;20084;-74
2022/03/02 02:23:20;;;;;;;13.95;7.00;;;;;;;;;;4971626;28;20027;-76
2022/03/02 02:25:46;;;;;;;10.63;6.00;;;;;;;;;;4976412;28;20034;-75
2022/03/02 02:28:13;;;;;;;15.85;7.03;;;;;;;;;;4975057;28;20034;-76
2022/03/02 02:30:40;;;;;;;10.05;6.00;;;;;;;;;;4972907;28;20414;-76
2022/03/02 02:33:06;;;;;;;17.30;6.18;;;;;;;;;;4969897;28;20584;-76
2022/03/02 02:35:33;;;;;;;9.20;5.22;;;;;;;;;;4976292;28;20041;-76
2022/03/02 02:37:59;;;;;;;12.90;5.68;;;;;;;;;;4975950;28;20543;-75
2022/03/02 02:40:26;;;;;;;13.93;5.43;;;;;;;;;;4974559;28;20540;-75
2022/03/02 02:42:53;;;;;;;12.57;5.68;;;;;;;;;;4972465;28;20034;-75
2022/03/02 02:45:21;;;;;;;14.35;6.10;;;;;;;;;;4975023;28;20027;-74
2022/03/02 02:47:54;;;;;;;13.98;6.47;;;;;;;;;;4973718;28;20031;-76
2022/03/02 02:50:20;;;;;;;19.70;5.93;;;;;;;;;;4974694;28;20026;-77
2022/03/02 02:52:47;;;;;;;13.05;4.40;;;;;;;;;;4975646;28;20066;-76
2022/03/02 02:55:14;;;;;;;15.60;5.65;;;;;;;;;;4976680;28;20093;-76
2022/03/02 02:57:40;;;;;;;10.75;6.63;;;;;;;;;;4975485;28;20123;-76
2022/03/02 03:00:08;;;;;;;17.88;6.03;;;;;;;;;;4971854;28;20023;-75
2022/03/02 03:02:34;;;;;;;15.88;5.13;;;;;;;;;;4975454;28;20512;-76
2022/03/02 03:05:00;;;;;;;8.82;4.50;;;;;;;;;;4970823;28;20242;-77
2022/03/02 03:07:26;;;;;;;15.20;6.20;;;;;;;;;;4973692;28;20026;-77
2022/03/02 03:09:52;;;;;;;16.13;4.85;;;;;;;;;;4975144;28;20031;-76
2022/03/02 03:12:18;;;;;;;10.52;4.90;;;;;;;;;;4969569;28;20169;-75
2022/03/02 03:14:45;;;;;;;14.02;5.38;;;;;;;;;;4974797;28;20479;-75
2022/03/02 03:17:11;;;;;;;11.65;6.18;;;;;;;;;;4970612;28;20046;-75
2022/03/02 03:19:37;;;;;;;11.82;4.57;;;;;;;;;;4972806;28;20018;-76
2022/03/02 03:22:04;;;;;;;7.47;4.80;;;;;;;;;;4973453;28;20027;-76
2022/03/02 03:24:30;;;;;;;9.77;5.18;;;;;;;;;;4970015;28;20427;-76
2022/03/02 03:26:56;;;;;;;12.73;5.97;;;;;;;;;;4974921;28;20031;-75
2022/03/02 03:29:22;;;;;;;14.45;5.78;;;;;;;;;;4972545;28;20054;-76
2022/03/02 03:31:48;;;;;;;8.02;5.05;;;;;;;;;;4969098;28;20485;-76
2022/03/02 03:34:15;;;;;;;10.18;5.05;;;;;;;;;;4977691;28;20050;-76
2022/03/02 03:36:41;;;;;;;11.77;5.00;;;;;;;;;;4974245;28;20034;-75
2022/03/02 03:39:08;;;;;;;9.48;5.47;;;;;;;;;;4972257;28;20026;-73
2022/03/02 03:41:34;;;;;;;13.20;5.22;;;;;;;;;;4957781;28;20093;-76
2022/03/02 03:44:00;;;;;;;19.13;4.95;;;;;;;;;;4957281;28;20031;-75
2022/03/02 03:46:27;;;;;;;9.40;4.07;;;;;;;;;;4958948;28;20057;-76
2022/03/02 03:48:53;;;;;;;10.15;4.00;;;;;;;;;;4964774;28;20039;-76
2022/03/02 03:51:19;;;;;;;10.02;4.15;;;;;;;;;;4954842;28;20027;-75
2022/03/02 03:53:45;;;;;;;10.32;4.53;;;;;;;;;;4954693;28;20043;-74
2022/03/02 03:56:11;;;;;;;9.18;4.18;;;;;;;;;;4953107;28;20035;-75
2022/03/02 03:58:37;;;;;;;12.43;4.97;;;;;;;;;;4959087;28;20039;-75
2022/03/02 04:01:03;;;;;;;15.20;4.13;;;;;;;;;;4956489;28;20027;-77
2022/03/02 04:03:30;;;;;;;9.40;5.07;;;;;;;;;;4951207;28;20031;-74
2022/03/02 04:05:56;;;;;;;18.80;5.05;;;;;;;;;;4955414;28;20082;-75
2022/03/02 04:08:22;;;;;;;13.95;4.43;;;;;;;;;;4962607;28;20366;-75
2022/03/02 04:10:49;;;;;;;15.60;4.80;;;;;;;;;;4954014;28;20035;-75
2022/03/02 04:13:15;;;;;;;11.60;4.45;;;;;;;;;;4954999;28;20059;-74
2022/03/02 04:15:41;;;;;;;9.00;4.32;;;;;;;;;;4957368;28;20035;-76
2022/03/02 04:18:07;;;;;;;10.32;4.75;;;;;;;;;;4960820;28;20091;-76
2022/03/02 04:20:34;;;;;;;13.95;5.53;;;;;;;;;;4959606;28;20031;-75
2022/03/02 04:23:01;;;;;;;14.85;5.63;;;;;;;;;;4956154;28;20024;-76
2022/03/02 04:25:27;;;;;;;10.20;4.05;;;;;;;;;;4956211;28;20031;-76
2022/03/02 04:27:53;;;;;;;10.43;3.97;;;;;;;;;;4959733;28;20108;-76
2022/03/02 04:30:20;;;;;;;14.43;5.70;;;;;;;;;;4956266;28;20039;-75
2022/03/02 04:32:46;;;;;;;12.88;4.88;;;;;;;;;;4954506;28;20038;-76
2022/03/02 04:35:12;;;;;;;9.02;3.97;;;;;;;;;;4958320;28;20031;-76
2022/03/02 04:37:39;;;;;;;10.60;4.47;;;;;;;;;;4957487;28;20054;-76
2022/03/02 04:40:06;;;;;;;8.88;3.78;;;;;;;;;;4952562;28;20521;-76
2022/03/02 04:42:33;;;;;;;12.05;4.60;;;;;;;;;;4953570;28;20042;-76
2022/03/02 04:44:59;;;;;;;11.15;4.15;;;;;;;;;;4955858;28;20082;-75
2022/03/02 04:47:25;;;;;;;9.05;3.92;;;;;;;;;;4953335;28;20441;-76
2022/03/02 04:49:51;;;;;;;10.27;4.13;;;;;;;;;;4956392;29;20038;-76
2022/03/02 04:52:18;;;;;;;7.07;3.80;;;;;;;;;;4951984;29;20028;-77
2022/03/02 04:57:29;;;;;;;13.07;4.03;;;;;;;;;;4952973;28;20042;-75
2022/03/02 04:59:55;;;;;;;8.57;4.25;;;;;;;;;;4954967;29;20100;-76
2022/03/02 05:02:21;;;;;;;7.82;4.05;;;;;;;;;;4953492;29;20030;-76
2022/03/02 05:04:47;;;;;;;8.98;3.90;;;;;;;;;;4946923;28;20027;-75
2022/03/02 05:07:13;;;;;;;11.93;4.10;;;;;;;;;;4949032;29;20039;-75
2022/03/02 05:09:39;;;;;;;12.02;4.32;;;;;;;;;;4954006;28;20039;-76
2022/03/02 05:12:05;;;;;;;9.43;4.10;;;;;;;;;;4955786;29;20603;-76
2022/03/02 05:14:31;;;;;;;8.88;4.72;;;;;;;;;;4951729;28;20051;-77
2022/03/02 05:16:57;;;;;;;15.30;4.57;;;;;;;;;;4945401;29;20031;-76
2022/03/02 05:19:24;;;;;;;7.05;4.63;;;;;;;;;;4951495;29;20102;-75
2022/03/02 05:21:50;;;;;;;10.77;4.38;;;;;;;;;;4951599;29;20090;-77
2022/03/02 05:24:16;;;;;;;10.05;4.35;;;;;;;;;;4959718;28;20479;-76
2022/03/02 05:26:42;;;;;;;6.95;3.92;;;;;;;;;;4953030;29;20043;-75
2022/03/02 05:29:09;;;;;;;13.00;4.50;;;;;;;;;;4948825;29;20035;-75
2022/03/02 05:31:35;;;;;;;8.70;4.13;;;;;;;;;;4954432;29;20482;-75
2022/03/02 05:34:01;;;;;;;9.65;4.43;;;;;;;;;;4954260;29;20461;-76
2022/03/02 05:36:27;;;;;;;10.63;3.83;;;;;;;;;;4954735;29;20034;-75
2022/03/02 05:38:54;;;;;;;12.57;4.35;;;;;;;;;;4948088;29;20027;-76
2022/03/02 05:41:21;;;;;;;6.07;4.88;;;;;;;;;;4966552;28;20046;-76
2022/03/02 05:43:47;;;;;;;7.97;4.05;;;;;;;;;;4961205;28;20027;-77
2022/03/02 05:46:13;;;;;;;12.27;4.43;;;;;;;;;;4960928;28;20023;-77
2022/03/02 05:48:39;;;;;;;11.10;4.50;;;;;;;;;;4962097;28;20044;-76
2022/03/02 05:51:05;;;;;;;7.55;4.13;;;;;;;;;;4968811;28;20038;-77
2022/03/02 05:53:32;;;;;;;11.45;4.03;;;;;;;;;;4958863;28;20234;-76
2022/03/02 05:55:58;;;;;;;11.70;4.40;;;;;;;;;;4964060;28;20035;-75
2022/03/02 05:58:25;;;;;;;9.02;4.15;;;;;;;;;;4953211;28;20030;-76
2022/03/02 06:00:52;;;;;;;7.68;4.03;;;;;;;;;;4958100;28;20024;-76
2022/03/02 06:03:19;;;;;;;8.95;3.85;;;;;;;;;;4953840;28;20272;-76
2022/03/02 06:05:45;;;;;;;10.45;4.07;;;;;;;;;;4965004;28;20031;-76
2022/03/02 06:08:11;;;;;;;8.35;3.80;;;;;;;;;;4951666;28;20055;-76
2022/03/02 06:10:37;;;;;;;11.23;4.10;;;;;;;;;;4960710;28;20099;-75
2022/03/02 06:13:04;;;;;;;6.30;3.33;;;;;;;;;;4960120;28;20529;-76
2022/03/02 06:15:30;;;;;;;9.35;4.32;;;;;;;;;;4959214;28;20027;-77
2022/03/02 06:18:01;;;;;;;8.43;4.00;;;;;;;;;;4961441;28;20035;-77
2022/03/02 06:20:27;;;;;;;8.38;5.03;;;;;;;;;;4961100;28;20042;-76
2022/03/02 06:22:53;;;;;;;10.20;4.10;;;;;;;;;;4958998;28;20094;-75
2022/03/02 06:25:19;;;;;;;7.15;3.53;;;;;;;;;;4964820;28;20491;-76
2022/03/02 06:27:45;;;;;;;8.63;3.28;;;;;;;;;;4965675;28;20070;-76
2022/03/02 06:30:12;;;;;;;7.90;3.65;;;;;;;;;;4958913;28;20031;-74
2022/03/02 06:32:38;;;;;;;4.28;3.33;;;;;;;;;;4956000;29;20070;-75
2022/03/02 06:35:05;;;;;;;7.80;3.08;;;;;;;;;;4956334;28;20118;-75
2022/03/02 06:37:33;;;;;;;5.32;3.60;;;;;;;;;;4962566;28;20080;-76
2022/03/02 06:40:00;;;;;;;11.73;3.50;;;;;;;;;;4963726;28;20384;-74
2022/03/02 06:42:46;;;;;;;7.45;3.60;;;;;;;;;;4960805;28;20026;-75
2022/03/02 06:45:16;;;;;;;7.32;3.28;;;;;;;;;;4957759;28;20371;-76
2022/03/02 06:47:46;;;;;;;5.78;3.97;;;;;;;;;;4961355;28;20497;-76
2022/03/02 06:50:14;;;;;;;4.25;3.38;;;;;;;;;;4961991;28;20074;-76
2022/03/02 06:52:41;;;;;;;8.40;3.40;;;;;;;;;;4961122;28;20027;-76
2022/03/02 06:55:11;;;;;;;5.90;3.65;;;;;;;;;;4963020;28;20481;-76
2022/03/02 06:57:38;;;;;;;5.97;3.70;;;;;;;;;;4956030;28;20113;-76
2022/03/02 07:00:08;;;;;;;12.60;3.85;;;;;;;;;;4953332;28;20786;-76
2022/03/02 07:02:39;;;;;;;5.47;3.30;;;;;;;;;;4956462;28;20033;-75
2022/03/02 07:05:06;;;;;;;10.10;3.47;;;;;;;;;;4967876;28;20082;-76
2022/03/02 07:07:34;;;;;;;6.57;3.05;;;;;;;;;;4962937;28;20031;-76
2022/03/02 07:10:00;;;;;;;5.55;3.38;;;;;;;;;;4963329;28;20023;-75
2022/03/02 07:12:27;;;;;;;4.82;3.10;;;;;;;;;;4960908;28;20027;-76
2022/03/02 07:14:54;;;;;;;6.55;3.35;;;;;;;;;;4958338;28;20032;-76
2022/03/02 07:17:21;;;;;;;10.20;4.75;;;;;;;;;;4954804;28;20110;-76
2022/03/02 07:19:47;;;;;;;6.45;3.83;;;;;;;;;;4954470;28;20026;-76
2022/03/02 07:22:16;;;;;;;9.73;3.35;;;;;;;;;;4955698;28;20020;-77
2022/03/02 07:24:51;;;;;;;5.57;3.45;;;;;;;;;;4956841;28;20034;-76
2022/03/02 07:27:18;;;;;;;7.00;3.20;;;;;;;;;;4959810;28;20038;-77
2022/03/02 07:29:45;;;;;;;4.60;2.90;;;;;;;;;;4956825;28;20640;-76
2022/03/02 07:32:12;;;;;;;7.05;2.70;;;;;;;;;;4940803;28;20121;-77
2022/03/02 07:34:42;;;;;;;9.00;3.20;;;;;;;;;;4966607;28;20015;-77
2022/03/02 07:37:11;;;;;;;9.25;3.13;;;;;;;;;;4957874;28;20031;-75
2022/03/02 07:39:37;;;;;;;5.57;3.40;;;;;;;;;;4960693;28;20066;-76
2022/03/02 07:42:04;;;;;;;7.10;3.08;;;;;;;;;;4960949;28;20721;-76
2022/03/02 07:44:30;;;;;;;5.72;3.00;;;;;;;;;;4951665;29;20501;-77
2022/03/02 07:46:56;;;;;;;7.88;3.17;;;;;;;;;;4956254;29;20118;-77
2022/03/02 07:49:22;;;;;;;7.63;3.20;;;;;;;;;;4945923;28;20039;-77
2022/03/02 07:51:51;;;;;;;4.28;2.63;;;;;;;;;;4963363;28;20053;-77
2022/03/02 07:54:17;;;;;;;3.80;2.67;;;;;;;;;;4956017;29;20034;-77
2022/03/02 07:56:44;;;;;;;4.28;2.70;;;;;;;;;;4957892;28;20035;-76
2022/03/02 07:59:10;;;;;;;6.35;3.13;;;;;;;;;;4954174;28;20150;-74
2022/03/02 08:01:37;;;;;;;7.57;3.42;;;;;;;;;;4951014;28;20051;-76
2022/03/02 08:04:05;;;;;;;5.35;2.55;;;;;;;;;;4954183;28;20107;-77
2022/03/02 08:06:31;;;;;;;5.10;2.80;;;;;;;;;;4941698;28;20086;-77
2022/03/02 08:08:58;;;;;;;3.95;2.58;;;;;;;;;;4955289;28;20020;-78
2022/03/02 08:11:24;;;;;;;5.25;2.38;;;;;;;;;;4963096;29;20042;-75
2022/03/02 08:13:50;;;;;;;4.38;2.50;;;;;;;;;;4949627;29;20558;-78
2022/03/02 08:16:16;;;;;;;3.97;2.45;;;;;;;;;;4953754;29;20086;-76
2022/03/02 08:18:43;;;;;;;7.38;2.90;;;;;;;;;;4968236;29;20050;-77
2022/03/02 08:21:10;;;;;;;8.27;3.45;;;;;;;;;;4963823;28;20385;-76
2022/03/02 08:23:38;;;;;;;7.55;3.35;;;;;;;;;;4962203;29;20023;-78
2022/03/02 08:26:05;;;;;;;5.25;2.72;;;;;;;;;;4956829;28;20024;-78
2022/03/02 08:28:35;;;;;;;9.52;4.45;;;;;;;;;;4958474;28;20031;-76
2022/03/02 08:31:01;;;;;;;7.28;3.22;;;;;;;;;;4951355;28;20041;-75
2022/03/02 08:33:29;;;;;;;5.40;2.80;;;;;;;;;;4966210;29;20030;-77
2022/03/02 08:35:57;;;;;;;6.00;2.95;;;;;;;;;;4967863;29;20035;-76
2022/03/02 08:38:24;;;;;;;4.93;3.10;;;;;;;;;;4960911;29;20508;-77
2022/03/02 08:40:50;;;;;;;13.02;3.95;;;;;;;;;;4982222;28;20062;-78
2022/03/02 08:43:17;;;;;;;5.72;2.75;;;;;;;;;;4970491;28;20027;-79
2022/03/02 08:45:45;;;;;;;4.90;3.30;;;;;;;;;;4974402;28;20085;-77
2022/03/02 08:48:13;;;;;;;5.30;3.03;;;;;;;;;;4981629;28;20064;-78
2022/03/02 08:50:40;;;;;;;7.38;2.92;;;;;;;;;;4986502;28;20062;-78
2022/03/02 08:53:06;;;;;;;9.27;3.22;;;;;;;;;;4982947;28;20448;-77
2022/03/02 08:55:33;;;;;;;7.10;3.25;;;;;;;;;;4984228;28;20035;-78
2022/03/02 08:57:59;;;;;;;9.98;3.10;;;;;;;;;;4974934;28;20034;-80
2022/03/02 09:00:25;;;;;;;7.65;3.00;;;;;;;;;;4975770;28;20023;-79
2022/03/02 09:02:52;;;;;;;7.95;3.33;;;;;;;;;;4982518;28;20031;-79
2022/03/02 09:05:19;;;;;;;6.80;3.75;;;;;;;;;;4954985;28;20102;-77
2022/03/02 09:07:45;;;;;;;6.97;3.60;;;;;;;;;;4951282;28;20034;-78
2022/03/02 09:10:12;;;;;;;9.98;3.10;;;;;;;;;;4982094;28;20398;-79
2022/03/02 09:12:41;;;;;;;3.95;2.25;;;;;;;;;;4964056;28;20421;-78
2022/03/02 09:15:07;;;;;;;7.47;2.78;;;;;;;;;;4963422;28;20098;-78
2022/03/02 09:17:33;;;;;;;2.72;2.35;;;;;;;;;;4963833;28;20063;-78
2022/03/02 09:20:00;;;;;;;5.22;2.38;;;;;;;;;;4981280;28;20023;-79
2022/03/02 09:22:27;;;;;;;9.90;3.42;;;;;;;;;;4957402;28;20018;-79
2022/03/02 09:24:53;;;;;;;8.95;2.65;;;;;;;;;;4970334;28;20033;-78
2022/03/02 09:27:20;;;;;;;5.15;2.78;;;;;;;;;;4973830;28;20046;-80
2022/03/02 09:29:47;;;;;;;4.13;2.42;;;;;;;;;;4965846;28;20038;-78
2022/03/02 09:32:14;;;;;;;4.45;2.85;;;;;;;;;;4963785;28;20037;-78
2022/03/02 09:34:42;;;;;;;5.47;2.72;;;;;;;;;;4970885;28;20049;-79
2022/03/02 09:37:09;;;;;;;3.20;2.10;;;;;;;;;;4972262;28;20115;-78
2022/03/02 09:39:35;;;;;;;3.50;2.40;;;;;;;;;;4975107;28;20047;-78
2022/03/02 09:42:07;;;;;;;4.90;3.00;;;;;;;;;;4971943;28;20089;-79
2022/03/02 09:44:41;;;;;;;4.75;2.22;;;;;;;;;;4966133;28;20837;-78
2022/03/02 09:47:09;;;;;;;7.18;2.75;;;;;;;;;;4976080;28;20049;-81
2022/03/02 09:49:36;;;;;;;5.60;2.80;;;;;;;;;;4982754;28;20061;-79
2022/03/02 09:52:08;;;;;;;5.22;2.53;;;;;;;;;;4967982;28;20035;-79
2022/03/02 09:54:39;;;;;;;4.70;2.60;;;;;;;;;;4960504;28;20537;-78
2022/03/02 09:57:06;;;;;;;7.07;3.03;;;;;;;;;;4967928;28;20577;-77
2022/03/02 09:59:37;;;;;;;6.70;2.72;;;;;;;;;;4966927;28;20030;-80
2022/03/02 10:02:04;;;;;;;8.50;2.70;;;;;;;;;;4970548;28;20030;-82
2022/03/02 10:04:32;;;;;;;4.82;2.88;;;;;;;;;;4966553;28;20023;-77
2022/03/02 10:09:46;;;;;;;6.82;2.47;;;;;;;;;;4987866;28;20078;-80
2022/03/02 10:12:15;;;;;;;7.43;2.72;;;;;;;;;;4975479;28;20030;-78
2022/03/02 10:14:42;;;;;;;8.32;2.80;;;;;;;;;;4972269;28;20041;-80
2022/03/02 10:17:11;;;;;;;4.90;2.60;;;;;;;;;;4978523;28;20113;-80
2022/03/02 10:19:44;;;;;;;5.80;2.55;;;;;;;;;;4981596;28;20027;-80
2022/03/02 10:22:31;;;;;;;5.20;3.00;;;;;;;;;;4984569;28;20026;-78
2022/03/02 10:25:04;;;;;;;5.43;3.78;;;;;;;;;;4977827;28;20022;-82
2022/03/02 10:27:35;;;;;;;7.20;2.83;;;;;;;;;;4983355;28;20023;-77
2022/03/02 10:30:06;;;;;;;7.13;2.90;;;;;;;;;;4983126;28;20031;-78
2022/03/02 10:32:35;;;;;;;6.22;2.40;;;;;;;;;;4973083;28;20114;-80
2022/03/02 10:35:07;;;;;;;9.68;3.25;;;;;;;;;;4982053;28;20019;-80
2022/03/02 10:37:36;;;;;;;5.15;2.58;;;;;;;;;;4968113;28;20027;-80
2022/03/02 10:40:12;;;;;;;4.32;2.33;;;;;;;;;;4984218;28;20050;-80
2022/03/02 10:42:59;;;;;;;3.28;2.58;;;;;;;;;;4986101;28;20023;-79
2022/03/02 10:45:26;;;;;;;3.53;2.50;;;;;;;;;;4969806;28;20023;-80
2022/03/02 10:47:52;;;;;;;5.82;2.60;;;;;;;;;;4991845;28;20066;-82
2022/03/02 10:50:18;;;;;;;4.82;2.67;;;;;;;;;;4985818;28;20042;-80
2022/03/02 10:52:47;;;;;;;4.88;2.28;;;;;;;;;;4971338;28;20027;-82
2022/03/02 10:55:13;;;;;;;6.93;3.00;;;;;;;;;;4980091;28;20050;-81
2022/03/02 10:57:40;;;;;;;6.10;3.17;;;;;;;;;;4983964;28;20066;-82
2022/03/02 11:00:14;;;;;;;2.90;2.20;;;;;;;;;;4989675;28;20095;-81
2022/03/02 11:02:44;;;;;;;4.25;2.30;;;;;;;;;;4964231;28;20054;-80
2022/03/02 11:05:11;;;;;;;3.33;2.30;;;;;;;;;;4987435;28;20094;-81
2022/03/02 11:07:38;;;;;;;3.17;2.45;;;;;;;;;;4977564;28;20031;-81
2022/03/02 11:10:05;;;;;;;5.57;2.50;;;;;;;;;;4995252;28;20019;-80
2022/03/02 11:12:31;;;;;;;4.72;2.60;;;;;;;;;;4976910;28;20125;-80
2022/03/02 11:14:58;;;;;;;7.43;3.10;;;;;;;;;;4983565;28;20035;-79
2022/03/02 11:17:24;;;;;;;4.57;2.80;;;;;;;;;;4985572;28;20121;-80
2022/03/02 11:19:50;;;;;;;3.75;2.72;;;;;;;;;;4987802;28;20046;-80
2022/03/02 11:22:19;;;;;;;6.30;2.72;;;;;;;;;;4976756;28;20037;-82
2022/03/02 11:24:46;;;;;;;3.95;2.45;;;;;;;;;;4987457;28;20541;-82
2022/03/02 11:27:30;;;;;;;5.72;2.33;;;;;;;;;;4985738;28;20035;-79
2022/03/02 11:30:02;;;;;;;4.28;2.85;;;;;;;;;;4983151;28;20026;-81
2022/03/02 11:32:32;;;;;;;3.40;2.40;;;;;;;;;;4990080;28;20038;-77
2022/03/02 11:34:58;;;;;;;3.33;2.40;;;;;;;;;;4987719;28;20090;-76
2022/03/02 11:37:24;;;;;;;4.70;2.90;;;;;;;;;;4977500;28;20537;-78
2022/03/02 11:39:51;;;;;;;4.35;3.28;;;;;;;;;;4974057;28;20432;-80
2022/03/02 11:42:17;;;;;;;3.38;2.17;;;;;;;;;;4975546;28;20054;-80
2022/03/02 11:44:44;;;;;;;4.07;2.28;;;;;;;;;;4977788;28;20374;-79
2022/03/02 11:47:11;;;;;;;3.95;2.10;;;;;;;;;;4970934;28;20023;-77
2022/03/02 11:49:53;;;;;;;4.25;1.90;;;;;;;;;;4973239;28;20098;-80
2022/03/02 11:52:24;;;;;;;4.43;1.90;;;;;;;;;;4965276;28;20027;-78
2022/03/02 11:54:55;;;;;;;2.60;2.40;;;;;;;;;;4985791;28;20046;-78
2022/03/02 11:57:22;;;;;;;2.72;2.10;;;;;;;;;;4965207;28;20031;-78
2022/03/02 11:59:50;;;;;;;4.75;2.50;;;;;;;;;;4988411;28;20090;-78
2022/03/02 12:02:21;;;;;;;3.03;2.13;;;;;;;;;;4972773;28;20023;-79
2022/03/02 12:05:00;;;;;;;1.80;1.63;;;;;;;;;;4957296;28;20477;-78
2022/03/02 12:07:35;;;;;;;3.70;1.80;;;;;;;;;;4971890;28;20042;-78
2022/03/02 12:10:02;;;;;;;1.77;1.67;;;;;;;;;;4956389;28;20128;-78
2022/03/02 12:12:28;;;;;;;3.15;1.58;;;;;;;;;;4955209;28;20053;-78
2022/03/02 12:14:56;;;;;;;4.15;2.30;;;;;;;;;;4980635;28;20038;-77
2022/03/02 12:17:28;;;;;;;1.98;1.70;;;;;;;;;;4984909;28;20050;-80
2022/03/02 12:19:58;;;;;;;1.88;1.73;;;;;;;;;;4989127;28;20026;-79
2022/03/02 12:22:55;;;;;;;4.00;2.00;;;;;;;;;;4965792;28;20054;-78
2022/03/02 12:25:23;;;;;;;2.75;1.88;;;;;;;;;;4968393;28;20101;-80
2022/03/02 12:27:58;;;;;;;1.77;1.60;;;;;;;;;;4970928;28;20050;-79
2022/03/02 12:30:26;;;;;;;1.55;1.45;;;;;;;;;;4988086;28;20019;-78
2022/03/02 12:32:55;;;;;;;1.70;1.55;;;;;;;;;;4980670;28;20030;-77
2022/03/02 12:35:24;;;;;;;3.80;2.70;;;;;;;;;;4980516;28;20613;-78
2022/03/02 12:37:51;;;;;;;2.40;1.80;;;;;;;;;;4983473;28;20037;-77
2022/03/02 12:40:18;;;;;;;1.60;1.50;;;;;;;;;;4982538;28;20063;-78
2022/03/02 12:42:44;;;;;;;3.65;2.35;;;;;;;;;;4980204;28;20083;-78
2022/03/02 12:45:11;;;;;;;3.75;2.10;;;;;;;;;;4966693;28;20019;-80
2022/03/02 12:47:37;;;;;;;5.30;3.47;;;;;;;;;;4937837;28;20040;-78
2022/03/02 12:50:05;;;;;;;2.42;1.90;;;;;;;;;;4964231;28;20023;-79
2022/03/02 12:52:31;;;;;;;3.97;3.58;;;;;;;;;;4954582;28;20035;-78
2022/03/02 12:55:00;;;;;;;4.00;2.70;;;;;;;;;;4966468;28;20421;-79
2022/03/02 12:57:27;;;;;;;4.18;2.67;;;;;;;;;;4966098;28;20364;-78
2022/03/02 12:59:54;;;;;;;5.32;3.50;;;;;;;;;;4961290;28;20058;-79
2022/03/02 13:02:22;;;;;;;7.95;4.80;;;;;;;;;;4960855;28;20055;-75
2022/03/02 13:05:03;;;;;;;5.70;4.88;;;;;;;;;;4932134;28;20031;-78
2022/03/02 13:07:38;;;;;;;3.80;3.40;;;;;;;;;;4939836;28;20121;-79
2022/03/02 13:10:08;;;;;;;4.60;3.08;;;;;;;;;;4944082;28;20124;-79
2022/03/02 13:12:37;;;;;;;4.03;2.17;;;;;;;;;;4950737;28;20038;-78
2022/03/02 13:15:21;;;;;;;2.90;2.00;;;;;;;;;;4949561;28;20056;-80
2022/03/02 13:18:07;;;;;;;3.78;2.40;;;;;;;;;;4948653;28;20556;-78
2022/03/02 13:20:37;;;;;;;3.45;2.75;;;;;;;;;;4943127;28;20090;-78
2022/03/02 13:23:17;;;;;;;3.42;2.95;;;;;;;;;;4942239;28;20031;-77
2022/03/02 13:26:09;;;;;;;6.57;4.88;;;;;;;;;;4942018;28;20034;-77
2022/03/02 13:28:37;;;;;;;4.53;2.90;;;;;;;;;;4938471;28;20166;-78
2022/03/02 13:31:12;;;;;;;5.05;2.95;;;;;;;;;;4933131;28;20671;-78
2022/03/02 13:33:56;;;;;;;2.60;2.40;;;;;;;;;;4947154;28;20031;-78
2022/03/02 13:36:38;;;;;;;3.20;2.63;;;;;;;;;;4937265;28;20039;-76
2022/03/02 13:39:12;;;;;;;3.38;2.70;;;;;;;;;;4932370;28;20505;-77
2022/03/02 13:41:48;;;;;;;3.67;2.50;;;;;;;;;;4941333;28;20054;-78
2022/03/02 13:44:33;;;;;;;3.38;2.28;;;;;;;;;;4939035;28;20058;-77
2022/03/02 13:47:08;;;;;;;2.70;2.38;;;;;;;;;;4937914;28;20398;-76
2022/03/02 13:49:53;;;;;;;2.55;2.35;;;;;;;;;;4935124;28;20051;-76
2022/03/02 13:52:22;;;;;;;6.60;5.40;;;;;;;;;;4936408;28;20031;-77
2022/03/02 13:54:49;;;;;;;4.00;3.55;;;;;;;;;;4932784;28;20040;-77
2022/03/02 13:57:25;;;;;;;4.13;3.30;;;;;;;;;;4949757;28;20031;-79
2022/03/02 14:00:11;;;;;;;2.55;2.20;;;;;;;;;;4949246;28;20031;-77
2022/03/02 14:02:37;;;;;;;2.85;2.28;;;;;;;;;;4927169;29;20127;-79
2022/03/02 14:05:04;;;;;;;4.30;2.85;;;;;;;;;;4944250;28;20024;-78
2022/03/02 14:07:31;;;;;;;3.05;2.10;;;;;;;;;;4947961;28;20066;-75
2022/03/02 14:10:04;;;;;;;4.85;3.20;;;;;;;;;;4945179;28;20023;-78
2022/03/02 14:12:31;;;;;;;4.72;3.33;;;;;;;;;;4944031;28;20039;-76
2022/03/02 14:15:08;;;;;;;2.83;1.90;;;;;;;;;;4952372;29;20027;-76
2022/03/02 14:17:35;;;;;;;5.38;3.72;;;;;;;;;;4936530;29;20042;-77
2022/03/02 14:20:03;;;;;;;4.28;2.17;;;;;;;;;;4944091;28;20081;-75
2022/03/02 14:22:30;;;;;;;2.40;2.03;;;;;;;;;;4943670;28;20409;-76
2022/03/02 14:24:56;;;;;;;3.60;2.47;;;;;;;;;;4942779;29;20821;-76
2022/03/02 14:27:27;;;;;;;2.45;2.03;;;;;;;;;;4949903;28;20031;-76
2022/03/02 14:29:53;;;;;;;3.38;2.35;;;;;;;;;;4954372;28;20046;-76
2022/03/02 14:32:19;;;;;;;2.83;2.40;;;;;;;;;;4956807;29;20042;-78
2022/03/02 14:34:48;;;;;;;2.38;2.00;;;;;;;;;;4967517;29;20028;-78
2022/03/02 14:37:16;;;;;;;2.92;2.03;;;;;;;;;;4958675;28;21236;-78
2022/03/02 14:39:59;;;;;;;2.95;2.65;;;;;;;;;;4949336;28;20051;-77
2022/03/02 14:42:25;;;;;;;2.97;2.10;;;;;;;;;;4948012;28;20600;-78
2022/03/02 14:45:10;;;;;;;8.32;5.40;;;;;;;;;;4945756;28;20042;-78
2022/03/02 14:47:37;;;;;;;9.43;6.70;;;;;;;;;;4951126;28;20039;-76
2022/03/02 14:50:03;;;;;;;9.75;5.82;;;;;;;;;;4957483;28;20031;-77